sensor_id;sensor_type;location;lat;lon;timestamp;P1;durP1;ratioP1;P2;durP2;ratioP2
10248;SDS011;5169;50.560;9.714;2023-01-29T00:01:50;55.50;;;27.30;;
10248;SDS011;5169;50.560;9.714;2023-01-29T00:04:16;57.73;;;27.80;;
10248;SDS011;5169;50.560;9.714;2023-01-29T00:06:42;55.80;;;27.00;;
10248;SDS011;5169;50.560;9.714;2023-01-29T00:09:08;55.13;;;26.90;;
10248;SDS011;5169;50.560;9.714;2023-01-29T00:11:34;56.20;;;27.37;;
10248;SDS011;5169;50.560;9.714;2023-01-29T00:14:00;54.77;;;27.20;;
10248;SDS011;5169;50.560;9.714;2023-01-29T00:16:26;56.27;;;26.90;;
10248;SDS011;5169;50.560;9.714;2023-01-29T00:18:52;55.47;;;27.50;;
10248;SDS011;5169;50.560;9.714;2023-01-29T00:21:20;55.37;;;27.20;;
10248;SDS011;5169;50.560;9.714;2023-01-29T00:23:47;54.97;;;27.00;;
10248;SDS011;5169;50.560;9.714;2023-01-29T00:26:13;55.47;;;27.40;;
10248;SDS011;5169;50.560;9.714;2023-01-29T00:28:41;56.97;;;27.63;;
10248;SDS011;5169;50.560;9.714;2023-01-29T00:31:12;55.93;;;27.13;;
10248;SDS011;5169;50.560;9.714;2023-01-29T00:33:43;53.53;;;26.50;;
10248;SDS011;5169;50.560;9.714;2023-01-29T00:36:10;54.83;;;26.97;;
10248;SDS011;5169;50.560;9.714;2023-01-29T00:38:37;54.17;;;26.50;;
10248;SDS011;5169;50.560;9.714;2023-01-29T00:41:06;52.67;;;26.60;;
10248;SDS011;5169;50.560;9.714;2023-01-29T00:43:50;52.20;;;26.27;;
10248;SDS011;5169;50.560;9.714;2023-01-29T00:46:35;50.73;;;26.20;;
10248;SDS011;5169;50.560;9.714;2023-01-29T00:49:01;52.10;;;26.37;;
10248;SDS011;5169;50.560;9.714;2023-01-29T00:51:29;50.40;;;26.10;;
10248;SDS011;5169;50.560;9.714;2023-01-29T00:53:57;49.90;;;26.37;;
10248;SDS011;5169;50.560;9.714;2023-01-29T00:56:28;53.33;;;26.90;;
10248;SDS011;5169;50.560;9.714;2023-01-29T00:58:54;52.77;;;26.97;;
10248;SDS011;5169;50.560;9.714;2023-01-29T01:01:20;53.97;;;26.90;;
10248;SDS011;5169;50.560;9.714;2023-01-29T01:04:06;53.43;;;26.50;;
10248;SDS011;5169;50.560;9.714;2023-01-29T01:06:38;56.93;;;27.13;;
10248;SDS011;5169;50.560;9.714;2023-01-29T01:09:07;54.27;;;26.77;;
10248;SDS011;5169;50.560;9.714;2023-01-29T01:11:54;53.10;;;26.53;;
10248;SDS011;5169;50.560;9.714;2023-01-29T01:14:25;56.67;;;28.03;;
10248;SDS011;5169;50.560;9.714;2023-01-29T01:16:50;53.73;;;26.70;;
10248;SDS011;5169;50.560;9.714;2023-01-29T01:19:16;54.83;;;27.13;;
10248;SDS011;5169;50.560;9.714;2023-01-29T01:21:44;56.67;;;27.07;;
10248;SDS011;5169;50.560;9.714;2023-01-29T01:24:12;55.57;;;26.83;;
10248;SDS011;5169;50.560;9.714;2023-01-29T01:26:38;53.47;;;26.50;;
10248;SDS011;5169;50.560;9.714;2023-01-29T01:29:06;57.33;;;26.80;;
10248;SDS011;5169;50.560;9.714;2023-01-29T01:31:34;52.53;;;26.30;;
10248;SDS011;5169;50.560;9.714;2023-01-29T01:34:00;54.30;;;27.00;;
10248;SDS011;5169;50.560;9.714;2023-01-29T01:36:25;52.70;;;26.30;;
10248;SDS011;5169;50.560;9.714;2023-01-29T01:38:51;53.77;;;27.07;;
10248;SDS011;5169;50.560;9.714;2023-01-29T01:41:19;54.80;;;26.73;;
10248;SDS011;5169;50.560;9.714;2023-01-29T01:46:15;54.60;;;26.37;;
10248;SDS011;5169;50.560;9.714;2023-01-29T01:48:41;54.50;;;27.20;;
10248;SDS011;5169;50.560;9.714;2023-01-29T01:51:08;59.17;;;27.90;;
10248;SDS011;5169;50.560;9.714;2023-01-29T01:54:17;56.67;;;27.27;;
10248;SDS011;5169;50.560;9.714;2023-01-29T01:56:31;58.60;;;27.97;;
10248;SDS011;5169;50.560;9.714;2023-01-29T01:59:12;59.43;;;27.77;;
10248;SDS011;5169;50.560;9.714;2023-01-29T02:01:42;54.37;;;27.50;;
10248;SDS011;5169;50.560;9.714;2023-01-29T02:04:17;54.23;;;27.07;;
10248;SDS011;5169;50.560;9.714;2023-01-29T02:07:08;57.03;;;27.50;;
10248;SDS011;5169;50.560;9.714;2023-01-29T02:10:00;57.03;;;27.90;;
10248;SDS011;5169;50.560;9.714;2023-01-29T02:12:35;59.63;;;27.37;;
10248;SDS011;5169;50.560;9.714;2023-01-29T02:15:02;59.30;;;27.57;;
10248;SDS011;5169;50.560;9.714;2023-01-29T02:17:28;57.30;;;27.63;;
10248;SDS011;5169;50.560;9.714;2023-01-29T02:28:37;58.30;;;27.70;;
10248;SDS011;5169;50.560;9.714;2023-01-29T02:41:56;57.83;;;27.40;;
10248;SDS011;5169;50.560;9.714;2023-01-29T02:47:04;58.33;;;27.40;;
10248;SDS011;5169;50.560;9.714;2023-01-29T02:49:46;60.10;;;28.13;;
10248;SDS011;5169;50.560;9.714;2023-01-29T02:52:18;56.37;;;27.40;;
10248;SDS011;5169;50.560;9.714;2023-01-29T02:57:25;60.63;;;28.57;;
10248;SDS011;5169;50.560;9.714;2023-01-29T03:05:22;59.07;;;28.47;;
10248;SDS011;5169;50.560;9.714;2023-01-29T03:07:59;61.47;;;28.50;;
10248;SDS011;5169;50.560;9.714;2023-01-29T03:10:36;61.07;;;28.30;;
10248;SDS011;5169;50.560;9.714;2023-01-29T03:13:17;63.17;;;29.10;;
10248;SDS011;5169;50.560;9.714;2023-01-29T03:18:52;63.00;;;29.40;;
10248;SDS011;5169;50.560;9.714;2023-01-29T03:21:31;64.90;;;29.83;;
10248;SDS011;5169;50.560;9.714;2023-01-29T03:24:21;63.13;;;29.47;;
10248;SDS011;5169;50.560;9.714;2023-01-29T03:27:21;63.10;;;29.00;;
10248;SDS011;5169;50.560;9.714;2023-01-29T03:30:10;63.57;;;29.10;;
10248;SDS011;5169;50.560;9.714;2023-01-29T03:32:59;62.23;;;29.40;;
10248;SDS011;5169;50.560;9.714;2023-01-29T03:35:29;60.90;;;28.90;;
10248;SDS011;5169;50.560;9.714;2023-01-29T03:38:04;62.97;;;29.20;;
10248;SDS011;5169;50.560;9.714;2023-01-29T03:40:35;64.13;;;29.17;;
10248;SDS011;5169;50.560;9.714;2023-01-29T03:43:10;63.23;;;28.73;;
10248;SDS011;5169;50.560;9.714;2023-01-29T03:48:27;61.60;;;28.90;;
10248;SDS011;5169;50.560;9.714;2023-01-29T03:51:25;59.67;;;28.33;;
10248;SDS011;5169;50.560;9.714;2023-01-29T03:54:03;60.73;;;28.37;;
10248;SDS011;5169;50.560;9.714;2023-01-29T04:01:53;57.13;;;27.53;;
10248;SDS011;5169;50.560;9.714;2023-01-29T04:04:35;60.20;;;28.27;;
10248;SDS011;5169;50.560;9.714;2023-01-29T04:07:09;58.50;;;27.87;;
10248;SDS011;5169;50.560;9.714;2023-01-29T04:09:41;57.87;;;27.83;;
10248;SDS011;5169;50.560;9.714;2023-01-29T04:12:11;57.43;;;27.37;;
10248;SDS011;5169;50.560;9.714;2023-01-29T04:14:40;60.60;;;28.27;;
10248;SDS011;5169;50.560;9.714;2023-01-29T04:17:16;58.23;;;27.70;;
10248;SDS011;5169;50.560;9.714;2023-01-29T04:19:47;58.50;;;28.37;;
10248;SDS011;5169;50.560;9.714;2023-01-29T04:22:20;68.83;;;32.10;;
10248;SDS011;5169;50.560;9.714;2023-01-29T04:24:50;68.97;;;30.50;;
10248;SDS011;5169;50.560;9.714;2023-01-29T04:27:26;62.53;;;29.43;;
10248;SDS011;5169;50.560;9.714;2023-01-29T04:30:06;62.10;;;29.67;;
10248;SDS011;5169;50.560;9.714;2023-01-29T04:41:15;60.90;;;28.93;;
10248;SDS011;5169;50.560;9.714;2023-01-29T04:44:32;64.27;;;29.40;;
10248;SDS011;5169;50.560;9.714;2023-01-29T04:46:47;62.17;;;29.00;;
10248;SDS011;5169;50.560;9.714;2023-01-29T04:54:43;62.30;;;29.47;;
10248;SDS011;5169;50.560;9.714;2023-01-29T04:57:24;62.03;;;30.10;;
10248;SDS011;5169;50.560;9.714;2023-01-29T05:00:12;62.77;;;28.87;;
10248;SDS011;5169;50.560;9.714;2023-01-29T05:02:53;61.17;;;28.77;;
10248;SDS011;5169;50.560;9.714;2023-01-29T05:05:21;62.13;;;29.40;;
10248;SDS011;5169;50.560;9.714;2023-01-29T05:07:47;61.17;;;29.20;;
10248;SDS011;5169;50.560;9.714;2023-01-29T05:10:13;57.93;;;28.10;;
10248;SDS011;5169;50.560;9.714;2023-01-29T05:12:42;61.83;;;28.83;;
10248;SDS011;5169;50.560;9.714;2023-01-29T05:15:11;64.80;;;29.50;;
10248;SDS011;5169;50.560;9.714;2023-01-29T05:17:41;62.70;;;29.40;;
10248;SDS011;5169;50.560;9.714;2023-01-29T05:20:07;60.53;;;28.50;;
10248;SDS011;5169;50.560;9.714;2023-01-29T05:22:36;62.57;;;29.13;;
10248;SDS011;5169;50.560;9.714;2023-01-29T05:25:11;63.07;;;29.13;;
10248;SDS011;5169;50.560;9.714;2023-01-29T05:27:48;64.10;;;29.63;;
10248;SDS011;5169;50.560;9.714;2023-01-29T05:30:34;60.67;;;28.63;;
10248;SDS011;5169;50.560;9.714;2023-01-29T05:33:04;61.60;;;29.13;;
10248;SDS011;5169;50.560;9.714;2023-01-29T05:35:42;62.17;;;28.90;;
10248;SDS011;5169;50.560;9.714;2023-01-29T05:38:08;62.23;;;28.93;;
10248;SDS011;5169;50.560;9.714;2023-01-29T05:40:34;64.03;;;29.17;;
10248;SDS011;5169;50.560;9.714;2023-01-29T05:43:00;63.50;;;29.47;;
10248;SDS011;5169;50.560;9.714;2023-01-29T05:45:26;61.60;;;28.80;;
10248;SDS011;5169;50.560;9.714;2023-01-29T05:48:01;57.57;;;28.23;;
10248;SDS011;5169;50.560;9.714;2023-01-29T05:50:27;57.43;;;27.97;;
10248;SDS011;5169;50.560;9.714;2023-01-29T05:52:58;55.07;;;27.87;;
10248;SDS011;5169;50.560;9.714;2023-01-29T05:55:26;58.17;;;28.20;;
10248;SDS011;5169;50.560;9.714;2023-01-29T05:57:56;59.77;;;29.07;;
10248;SDS011;5169;50.560;9.714;2023-01-29T06:00:25;58.23;;;28.67;;
10248;SDS011;5169;50.560;9.714;2023-01-29T06:02:53;58.00;;;28.23;;
10248;SDS011;5169;50.560;9.714;2023-01-29T06:05:19;59.40;;;28.93;;
10248;SDS011;5169;50.560;9.714;2023-01-29T06:07:46;58.63;;;28.23;;
10248;SDS011;5169;50.560;9.714;2023-01-29T06:10:13;60.27;;;28.50;;
10248;SDS011;5169;50.560;9.714;2023-01-29T06:12:41;57.87;;;28.13;;
10248;SDS011;5169;50.560;9.714;2023-01-29T06:15:08;58.53;;;28.60;;
10248;SDS011;5169;50.560;9.714;2023-01-29T06:17:34;57.97;;;28.67;;
10248;SDS011;5169;50.560;9.714;2023-01-29T06:20:03;59.27;;;28.77;;
10248;SDS011;5169;50.560;9.714;2023-01-29T06:22:29;57.33;;;28.67;;
10248;SDS011;5169;50.560;9.714;2023-01-29T06:24:54;58.17;;;28.70;;
10248;SDS011;5169;50.560;9.714;2023-01-29T06:27:20;57.53;;;28.17;;
10248;SDS011;5169;50.560;9.714;2023-01-29T06:29:46;58.70;;;28.60;;
10248;SDS011;5169;50.560;9.714;2023-01-29T06:32:11;58.40;;;27.80;;
10248;SDS011;5169;50.560;9.714;2023-01-29T06:34:37;60.40;;;28.97;;
10248;SDS011;5169;50.560;9.714;2023-01-29T06:37:05;63.03;;;29.13;;
10248;SDS011;5169;50.560;9.714;2023-01-29T06:39:32;58.77;;;28.37;;
10248;SDS011;5169;50.560;9.714;2023-01-29T06:41:58;60.37;;;28.60;;
10248;SDS011;5169;50.560;9.714;2023-01-29T06:44:23;56.10;;;28.23;;
10248;SDS011;5169;50.560;9.714;2023-01-29T06:46:49;57.03;;;28.07;;
10248;SDS011;5169;50.560;9.714;2023-01-29T06:49:17;57.27;;;27.87;;
10248;SDS011;5169;50.560;9.714;2023-01-29T06:51:43;57.30;;;27.63;;
10248;SDS011;5169;50.560;9.714;2023-01-29T06:54:11;58.50;;;28.13;;
10248;SDS011;5169;50.560;9.714;2023-01-29T06:56:36;60.70;;;28.70;;
10248;SDS011;5169;50.560;9.714;2023-01-29T06:59:02;59.30;;;28.50;;
10248;SDS011;5169;50.560;9.714;2023-01-29T07:01:28;60.03;;;28.80;;
10248;SDS011;5169;50.560;9.714;2023-01-29T07:03:53;58.07;;;27.73;;
10248;SDS011;5169;50.560;9.714;2023-01-29T07:06:25;55.23;;;28.13;;
10248;SDS011;5169;50.560;9.714;2023-01-29T07:08:52;58.20;;;27.80;;
10248;SDS011;5169;50.560;9.714;2023-01-29T07:11:18;54.20;;;27.53;;
10248;SDS011;5169;50.560;9.714;2023-01-29T07:13:44;55.93;;;27.53;;
10248;SDS011;5169;50.560;9.714;2023-01-29T07:16:09;56.43;;;27.30;;
10248;SDS011;5169;50.560;9.714;2023-01-29T07:18:37;56.97;;;28.07;;
10248;SDS011;5169;50.560;9.714;2023-01-29T07:21:03;57.10;;;28.17;;
10248;SDS011;5169;50.560;9.714;2023-01-29T07:23:30;57.53;;;28.40;;
10248;SDS011;5169;50.560;9.714;2023-01-29T07:25:58;56.97;;;28.23;;
10248;SDS011;5169;50.560;9.714;2023-01-29T07:28:26;57.10;;;28.10;;
10248;SDS011;5169;50.560;9.714;2023-01-29T07:30:55;55.77;;;27.43;;
10248;SDS011;5169;50.560;9.714;2023-01-29T07:33:24;58.37;;;28.90;;
10248;SDS011;5169;50.560;9.714;2023-01-29T07:35:52;58.57;;;28.70;;
10248;SDS011;5169;50.560;9.714;2023-01-29T07:38:17;58.30;;;28.60;;
10248;SDS011;5169;50.560;9.714;2023-01-29T07:40:43;57.83;;;28.53;;
10248;SDS011;5169;50.560;9.714;2023-01-29T07:43:09;59.70;;;28.27;;
10248;SDS011;5169;50.560;9.714;2023-01-29T07:45:35;59.03;;;28.10;;
10248;SDS011;5169;50.560;9.714;2023-01-29T07:48:08;56.17;;;27.80;;
10248;SDS011;5169;50.560;9.714;2023-01-29T07:50:38;59.33;;;28.10;;
10248;SDS011;5169;50.560;9.714;2023-01-29T07:53:10;58.00;;;28.30;;
10248;SDS011;5169;50.560;9.714;2023-01-29T07:55:39;60.73;;;28.77;;
10248;SDS011;5169;50.560;9.714;2023-01-29T07:58:12;60.77;;;28.57;;
10248;SDS011;5169;50.560;9.714;2023-01-29T08:00:38;60.47;;;28.93;;
10248;SDS011;5169;50.560;9.714;2023-01-29T08:03:08;58.53;;;28.70;;
10248;SDS011;5169;50.560;9.714;2023-01-29T08:05:37;58.67;;;28.60;;
10248;SDS011;5169;50.560;9.714;2023-01-29T08:08:05;61.47;;;29.07;;
10248;SDS011;5169;50.560;9.714;2023-01-29T08:10:33;59.20;;;29.00;;
10248;SDS011;5169;50.560;9.714;2023-01-29T08:13:00;62.30;;;29.63;;
10248;SDS011;5169;50.560;9.714;2023-01-29T08:15:26;63.17;;;29.83;;
10248;SDS011;5169;50.560;9.714;2023-01-29T08:17:55;66.50;;;30.37;;
10248;SDS011;5169;50.560;9.714;2023-01-29T08:20:21;62.67;;;30.40;;
10248;SDS011;5169;50.560;9.714;2023-01-29T08:22:57;64.00;;;29.73;;
10248;SDS011;5169;50.560;9.714;2023-01-29T08:25:26;65.43;;;30.43;;
10248;SDS011;5169;50.560;9.714;2023-01-29T08:27:52;65.90;;;30.77;;
10248;SDS011;5169;50.560;9.714;2023-01-29T08:30:18;65.90;;;30.80;;
10248;SDS011;5169;50.560;9.714;2023-01-29T08:32:43;64.87;;;29.63;;
10248;SDS011;5169;50.560;9.714;2023-01-29T08:35:11;63.27;;;29.17;;
10248;SDS011;5169;50.560;9.714;2023-01-29T08:37:37;65.17;;;30.17;;
10248;SDS011;5169;50.560;9.714;2023-01-29T08:40:03;60.30;;;28.60;;
10248;SDS011;5169;50.560;9.714;2023-01-29T08:42:29;63.50;;;29.37;;
10248;SDS011;5169;50.560;9.714;2023-01-29T08:44:54;63.20;;;29.63;;
10248;SDS011;5169;50.560;9.714;2023-01-29T08:47:20;64.27;;;29.87;;
10248;SDS011;5169;50.560;9.714;2023-01-29T08:49:48;64.47;;;29.87;;
10248;SDS011;5169;50.560;9.714;2023-01-29T08:52:13;60.93;;;29.37;;
10248;SDS011;5169;50.560;9.714;2023-01-29T08:54:39;62.03;;;29.27;;
10248;SDS011;5169;50.560;9.714;2023-01-29T08:57:07;62.70;;;29.23;;
10248;SDS011;5169;50.560;9.714;2023-01-29T08:59:33;63.23;;;28.80;;
10248;SDS011;5169;50.560;9.714;2023-01-29T09:01:58;60.43;;;28.80;;
10248;SDS011;5169;50.560;9.714;2023-01-29T09:04:24;62.57;;;29.50;;
10248;SDS011;5169;50.560;9.714;2023-01-29T09:06:50;64.40;;;29.50;;
10248;SDS011;5169;50.560;9.714;2023-01-29T09:09:18;63.83;;;29.63;;
10248;SDS011;5169;50.560;9.714;2023-01-29T09:11:44;65.23;;;29.40;;
10248;SDS011;5169;50.560;9.714;2023-01-29T09:14:09;59.50;;;28.20;;
10248;SDS011;5169;50.560;9.714;2023-01-29T09:16:40;59.13;;;27.77;;
10248;SDS011;5169;50.560;9.714;2023-01-29T09:19:08;58.23;;;27.90;;
10248;SDS011;5169;50.560;9.714;2023-01-29T09:21:34;61.43;;;28.90;;
10248;SDS011;5169;50.560;9.714;2023-01-29T09:24:00;59.83;;;28.30;;
10248;SDS011;5169;50.560;9.714;2023-01-29T09:26:28;59.40;;;28.40;;
10248;SDS011;5169;50.560;9.714;2023-01-29T09:28:56;58.83;;;28.33;;
10248;SDS011;5169;50.560;9.714;2023-01-29T09:31:21;58.83;;;27.90;;
10248;SDS011;5169;50.560;9.714;2023-01-29T09:33:49;57.87;;;28.63;;
10248;SDS011;5169;50.560;9.714;2023-01-29T09:36:15;55.90;;;27.63;;
10248;SDS011;5169;50.560;9.714;2023-01-29T09:38:43;55.70;;;27.63;;
10248;SDS011;5169;50.560;9.714;2023-01-29T09:46:45;58.43;;;28.50;;
10248;SDS011;5169;50.560;9.714;2023-01-29T09:49:14;60.03;;;28.60;;
10248;SDS011;5169;50.560;9.714;2023-01-29T09:51:57;61.33;;;29.87;;
10248;SDS011;5169;50.560;9.714;2023-01-29T09:54:41;60.20;;;29.57;;
10248;SDS011;5169;50.560;9.714;2023-01-29T09:57:19;64.47;;;29.90;;
10248;SDS011;5169;50.560;9.714;2023-01-29T09:59:52;61.73;;;29.90;;
10248;SDS011;5169;50.560;9.714;2023-01-29T10:13:38;63.67;;;29.90;;
10248;SDS011;5169;50.560;9.714;2023-01-29T10:16:32;64.50;;;30.33;;
10248;SDS011;5169;50.560;9.714;2023-01-29T10:26:45;63.53;;;29.87;;
10248;SDS011;5169;50.560;9.714;2023-01-29T10:29:13;66.27;;;30.87;;
10248;SDS011;5169;50.560;9.714;2023-01-29T10:31:42;65.90;;;30.60;;
10248;SDS011;5169;50.560;9.714;2023-01-29T10:34:13;67.13;;;31.13;;
10248;SDS011;5169;50.560;9.714;2023-01-29T10:36:51;68.00;;;31.47;;
10248;SDS011;5169;50.560;9.714;2023-01-29T10:39:24;68.43;;;31.40;;
10248;SDS011;5169;50.560;9.714;2023-01-29T10:45:32;67.27;;;31.53;;
10248;SDS011;5169;50.560;9.714;2023-01-29T10:51:05;67.33;;;31.77;;
10248;SDS011;5169;50.560;9.714;2023-01-29T10:56:32;66.90;;;32.37;;
10248;SDS011;5169;50.560;9.714;2023-01-29T10:59:34;66.30;;;32.00;;
10248;SDS011;5169;50.560;9.714;2023-01-29T11:02:15;70.77;;;32.73;;
10248;SDS011;5169;50.560;9.714;2023-01-29T11:04:42;74.37;;;33.13;;
10248;SDS011;5169;50.560;9.714;2023-01-29T11:07:09;76.80;;;35.97;;
10248;SDS011;5169;50.560;9.714;2023-01-29T11:09:42;73.40;;;34.00;;
10248;SDS011;5169;50.560;9.714;2023-01-29T11:12:19;73.00;;;33.80;;
10248;SDS011;5169;50.560;9.714;2023-01-29T11:14:55;67.83;;;32.40;;
10248;SDS011;5169;50.560;9.714;2023-01-29T11:17:26;66.63;;;32.17;;
10248;SDS011;5169;50.560;9.714;2023-01-29T11:19:52;68.07;;;33.30;;
10248;SDS011;5169;50.560;9.714;2023-01-29T11:22:25;63.53;;;32.53;;
10248;SDS011;5169;50.560;9.714;2023-01-29T11:30:34;71.73;;;35.13;;
10248;SDS011;5169;50.560;9.714;2023-01-29T11:33:11;77.63;;;36.30;;
10248;SDS011;5169;50.560;9.714;2023-01-29T11:35:49;73.57;;;35.10;;
10248;SDS011;5169;50.560;9.714;2023-01-29T11:38:18;79.50;;;36.63;;
10248;SDS011;5169;50.560;9.714;2023-01-29T11:40:50;76.20;;;36.50;;
10248;SDS011;5169;50.560;9.714;2023-01-29T11:45:44;81.27;;;37.00;;
10248;SDS011;5169;50.560;9.714;2023-01-29T11:48:15;77.30;;;36.77;;
10248;SDS011;5169;50.560;9.714;2023-01-29T11:50:43;76.67;;;37.17;;
10248;SDS011;5169;50.560;9.714;2023-01-29T11:53:23;79.57;;;37.37;;
10248;SDS011;5169;50.560;9.714;2023-01-29T11:56:49;69.33;;;35.40;;
10248;SDS011;5169;50.560;9.714;2023-01-29T11:58:56;67.80;;;35.40;;
10248;SDS011;5169;50.560;9.714;2023-01-29T12:01:44;66.83;;;34.67;;
10248;SDS011;5169;50.560;9.714;2023-01-29T12:04:14;71.57;;;35.43;;
10248;SDS011;5169;50.560;9.714;2023-01-29T12:06:46;69.90;;;34.60;;
10248;SDS011;5169;50.560;9.714;2023-01-29T12:09:17;61.93;;;32.90;;
10248;SDS011;5169;50.560;9.714;2023-01-29T12:11:45;66.50;;;34.07;;
10248;SDS011;5169;50.560;9.714;2023-01-29T12:14:26;67.87;;;34.20;;
10248;SDS011;5169;50.560;9.714;2023-01-29T12:17:05;70.00;;;33.93;;
10248;SDS011;5169;50.560;9.714;2023-01-29T12:19:42;70.50;;;33.20;;
10248;SDS011;5169;50.560;9.714;2023-01-29T12:24:52;71.27;;;33.20;;
10248;SDS011;5169;50.560;9.714;2023-01-29T12:30:21;62.37;;;31.60;;
10248;SDS011;5169;50.560;9.714;2023-01-29T12:35:35;68.30;;;33.63;;
10248;SDS011;5169;50.560;9.714;2023-01-29T12:40:43;74.80;;;35.87;;
10248;SDS011;5169;50.560;9.714;2023-01-29T12:43:45;80.30;;;36.63;;
10248;SDS011;5169;50.560;9.714;2023-01-29T12:46:08;80.17;;;36.23;;
10248;SDS011;5169;50.560;9.714;2023-01-29T12:48:56;79.47;;;36.73;;
10248;SDS011;5169;50.560;9.714;2023-01-29T12:51:33;79.07;;;36.00;;
10248;SDS011;5169;50.560;9.714;2023-01-29T12:54:05;76.53;;;35.10;;
10248;SDS011;5169;50.560;9.714;2023-01-29T12:56:37;75.77;;;35.43;;
10248;SDS011;5169;50.560;9.714;2023-01-29T13:01:58;84.67;;;36.90;;
10248;SDS011;5169;50.560;9.714;2023-01-29T13:04:34;78.63;;;37.10;;
10248;SDS011;5169;50.560;9.714;2023-01-29T13:07:12;83.97;;;38.30;;
10248;SDS011;5169;50.560;9.714;2023-01-29T13:09:45;79.13;;;37.67;;
10248;SDS011;5169;50.560;9.714;2023-01-29T13:12:19;72.97;;;36.27;;
10248;SDS011;5169;50.560;9.714;2023-01-29T13:14:56;76.93;;;37.23;;
10248;SDS011;5169;50.560;9.714;2023-01-29T13:17:35;76.50;;;36.80;;
10248;SDS011;5169;50.560;9.714;2023-01-29T13:20:12;72.63;;;35.40;;
10248;SDS011;5169;50.560;9.714;2023-01-29T13:22:47;79.43;;;36.33;;
10248;SDS011;5169;50.560;9.714;2023-01-29T13:25:17;72.53;;;35.13;;
10248;SDS011;5169;50.560;9.714;2023-01-29T13:27:44;75.53;;;35.00;;
10248;SDS011;5169;50.560;9.714;2023-01-29T13:30:28;77.70;;;35.33;;
10248;SDS011;5169;50.560;9.714;2023-01-29T13:32:56;74.03;;;34.20;;
10248;SDS011;5169;50.560;9.714;2023-01-29T13:35:41;78.20;;;33.47;;
10248;SDS011;5169;50.560;9.714;2023-01-29T13:40:49;77.33;;;32.80;;
10248;SDS011;5169;50.560;9.714;2023-01-29T13:43:19;74.57;;;32.97;;
10248;SDS011;5169;50.560;9.714;2023-01-29T13:45:48;74.30;;;33.43;;
10248;SDS011;5169;50.560;9.714;2023-01-29T13:48:21;69.13;;;33.23;;
10248;SDS011;5169;50.560;9.714;2023-01-29T13:50:48;68.03;;;33.07;;
10248;SDS011;5169;50.560;9.714;2023-01-29T13:53:18;64.90;;;32.33;;
10248;SDS011;5169;50.560;9.714;2023-01-29T13:55:47;69.67;;;32.50;;
10248;SDS011;5169;50.560;9.714;2023-01-29T13:58:14;74.03;;;33.67;;
10248;SDS011;5169;50.560;9.714;2023-01-29T14:05:42;70.77;;;32.50;;
10248;SDS011;5169;50.560;9.714;2023-01-29T14:13:40;70.03;;;32.27;;
10248;SDS011;5169;50.560;9.714;2023-01-29T14:18:35;68.20;;;31.77;;
10248;SDS011;5169;50.560;9.714;2023-01-29T14:23:42;68.13;;;31.50;;
10248;SDS011;5169;50.560;9.714;2023-01-29T14:29:33;64.87;;;29.87;;
10248;SDS011;5169;50.560;9.714;2023-01-29T14:31:52;72.20;;;30.53;;
10248;SDS011;5169;50.560;9.714;2023-01-29T14:39:50;69.23;;;31.43;;
10248;SDS011;5169;50.560;9.714;2023-01-29T14:43:18;63.03;;;30.03;;
10248;SDS011;5169;50.560;9.714;2023-01-29T14:48:46;59.00;;;29.07;;
10248;SDS011;5169;50.560;9.714;2023-01-29T14:51:15;59.87;;;28.80;;
10248;SDS011;5169;50.560;9.714;2023-01-29T14:56:50;59.37;;;28.97;;
10248;SDS011;5169;50.560;9.714;2023-01-29T14:59:25;59.20;;;28.67;;
10248;SDS011;5169;50.560;9.714;2023-01-29T15:02:19;62.03;;;28.73;;
10248;SDS011;5169;50.560;9.714;2023-01-29T15:04:52;64.97;;;28.57;;
10248;SDS011;5169;50.560;9.714;2023-01-29T15:12:54;65.23;;;29.77;;
10248;SDS011;5169;50.560;9.714;2023-01-29T15:15:37;70.37;;;31.30;;
10248;SDS011;5169;50.560;9.714;2023-01-29T15:18:14;67.60;;;30.77;;
10248;SDS011;5169;50.560;9.714;2023-01-29T15:20:42;67.87;;;30.37;;
10248;SDS011;5169;50.560;9.714;2023-01-29T15:23:26;66.13;;;30.33;;
10248;SDS011;5169;50.560;9.714;2023-01-29T15:25:56;59.30;;;28.37;;
10248;SDS011;5169;50.560;9.714;2023-01-29T15:28:25;60.63;;;29.57;;
10248;SDS011;5169;50.560;9.714;2023-01-29T15:30:56;61.57;;;29.17;;
10248;SDS011;5169;50.560;9.714;2023-01-29T15:33:28;66.50;;;31.10;;
10248;SDS011;5169;50.560;9.714;2023-01-29T15:35:58;65.03;;;30.07;;
10248;SDS011;5169;50.560;9.714;2023-01-29T15:38:24;64.40;;;30.43;;
10248;SDS011;5169;50.560;9.714;2023-01-29T15:41:12;63.57;;;28.53;;
10248;SDS011;5169;50.560;9.714;2023-01-29T15:43:41;68.70;;;30.00;;
10248;SDS011;5169;50.560;9.714;2023-01-29T15:46:14;63.73;;;29.90;;
10248;SDS011;5169;50.560;9.714;2023-01-29T15:48:43;62.47;;;29.53;;
10248;SDS011;5169;50.560;9.714;2023-01-29T15:51:12;62.83;;;29.37;;
10248;SDS011;5169;50.560;9.714;2023-01-29T15:53:42;64.30;;;31.00;;
10248;SDS011;5169;50.560;9.714;2023-01-29T15:56:13;64.03;;;30.93;;
10248;SDS011;5169;50.560;9.714;2023-01-29T15:58:46;60.77;;;28.87;;
10248;SDS011;5169;50.560;9.714;2023-01-29T16:01:14;64.20;;;29.97;;
10248;SDS011;5169;50.560;9.714;2023-01-29T16:03:42;65.23;;;30.70;;
10248;SDS011;5169;50.560;9.714;2023-01-29T16:06:09;60.53;;;28.20;;
10248;SDS011;5169;50.560;9.714;2023-01-29T16:08:40;60.07;;;27.00;;
10248;SDS011;5169;50.560;9.714;2023-01-29T16:11:10;61.70;;;29.30;;
10248;SDS011;5169;50.560;9.714;2023-01-29T16:13:38;58.97;;;26.93;;
10248;SDS011;5169;50.560;9.714;2023-01-29T16:18:42;63.33;;;30.30;;
10248;SDS011;5169;50.560;9.714;2023-01-29T16:21:14;62.30;;;29.73;;
10248;SDS011;5169;50.560;9.714;2023-01-29T16:24:04;62.00;;;29.90;;
10248;SDS011;5169;50.560;9.714;2023-01-29T16:26:35;64.30;;;30.43;;
10248;SDS011;5169;50.560;9.714;2023-01-29T16:29:06;62.67;;;30.50;;
10248;SDS011;5169;50.560;9.714;2023-01-29T16:31:35;66.57;;;31.37;;
10248;SDS011;5169;50.560;9.714;2023-01-29T16:34:06;68.50;;;31.63;;
10248;SDS011;5169;50.560;9.714;2023-01-29T16:36:43;63.40;;;30.47;;
10248;SDS011;5169;50.560;9.714;2023-01-29T16:39:16;61.40;;;29.90;;
10248;SDS011;5169;50.560;9.714;2023-01-29T16:44:39;62.03;;;30.50;;
10248;SDS011;5169;50.560;9.714;2023-01-29T16:47:10;55.47;;;28.77;;
10248;SDS011;5169;50.560;9.714;2023-01-29T16:57:35;59.63;;;30.20;;
10248;SDS011;5169;50.560;9.714;2023-01-29T17:00:05;56.80;;;29.13;;
10248;SDS011;5169;50.560;9.714;2023-01-29T17:02:35;56.13;;;29.80;;
10248;SDS011;5169;50.560;9.714;2023-01-29T17:05:04;63.63;;;30.23;;
10248;SDS011;5169;50.560;9.714;2023-01-29T17:07:32;63.90;;;30.97;;
10248;SDS011;5169;50.560;9.714;2023-01-29T17:10:02;62.00;;;31.33;;
10248;SDS011;5169;50.560;9.714;2023-01-29T17:12:32;64.87;;;31.97;;
10248;SDS011;5169;50.560;9.714;2023-01-29T17:14:59;65.40;;;31.23;;
10248;SDS011;5169;50.560;9.714;2023-01-29T17:17:34;59.70;;;30.43;;
10248;SDS011;5169;50.560;9.714;2023-01-29T17:20:10;64.10;;;30.90;;
10248;SDS011;5169;50.560;9.714;2023-01-29T17:22:38;62.87;;;30.70;;
10248;SDS011;5169;50.560;9.714;2023-01-29T17:25:04;63.90;;;30.27;;
10248;SDS011;5169;50.560;9.714;2023-01-29T17:27:30;61.17;;;29.63;;
10248;SDS011;5169;50.560;9.714;2023-01-29T17:29:56;59.67;;;29.70;;
10248;SDS011;5169;50.560;9.714;2023-01-29T17:32:22;63.63;;;30.90;;
10248;SDS011;5169;50.560;9.714;2023-01-29T17:34:49;62.67;;;30.60;;
10248;SDS011;5169;50.560;9.714;2023-01-29T17:37:17;62.07;;;29.80;;
10248;SDS011;5169;50.560;9.714;2023-01-29T17:39:44;62.57;;;29.93;;
10248;SDS011;5169;50.560;9.714;2023-01-29T17:42:16;63.20;;;30.00;;
10248;SDS011;5169;50.560;9.714;2023-01-29T17:44:42;63.37;;;31.07;;